createdAt,value
2023-05-02T00:01:50.058Z,100737.22
2023-05-02T00:04:17.930Z,100735.44
2023-05-02T00:06:47.191Z,100731.91
2023-05-02T00:09:16.391Z,100733.66
2023-05-02T00:11:44.150Z,100732.78
2023-05-02T00:14:11.862Z,100731.00
2023-05-02T00:16:39.876Z,100727.44
2023-05-02T00:19:08.078Z,100732.75
2023-05-02T00:21:35.843Z,100749.53
2023-05-02T00:24:03.580Z,100736.22
2023-05-02T00:26:32.748Z,100738.88
2023-05-02T00:29:01.203Z,100748.59
2023-05-02T00:31:29.020Z,100749.47
2023-05-02T00:33:57.213Z,100755.63
2023-05-02T00:36:24.929Z,100759.16
2023-05-02T00:38:52.642Z,100749.41
2023-05-02T00:41:20.485Z,100754.72
2023-05-02T00:43:49.577Z,100752.94
2023-05-02T00:46:17.456Z,100753.84
2023-05-02T00:48:45.850Z,100753.78
2023-05-02T00:51:13.554Z,100762.66
2023-05-02T00:53:41.805Z,100764.41
2023-05-02T00:56:09.905Z,100761.75
2023-05-02T00:58:39.770Z,100767.94
2023-05-02T01:01:17.886Z,100767.06
2023-05-02T01:03:56.649Z,100775.91
2023-05-02T01:06:37.995Z,100775.03
2023-05-02T01:09:18.205Z,100784.75
2023-05-02T01:11:51.192Z,100779.44
2023-05-02T01:14:20.463Z,100783.88
2023-05-02T01:16:51.050Z,100792.72
2023-05-02T01:19:26.801Z,100793.66
2023-05-02T01:21:56.259Z,100798.09
2023-05-02T01:24:27.817Z,100802.50
2023-05-02T01:27:08.240Z,100806.94
2023-05-02T01:29:40.155Z,100809.63
2023-05-02T01:32:10.150Z,100807.00
2023-05-02T01:34:41.673Z,100802.56
2023-05-02T01:37:12.245Z,100809.66
2023-05-02T01:39:42.125Z,100820.34
2023-05-02T01:42:12.918Z,100810.56
2023-05-02T01:44:44.603Z,100814.13
2023-05-02T01:47:14.774Z,100815.03
2023-05-02T01:49:44.895Z,100809.69
2023-05-02T01:52:14.953Z,100825.66
2023-05-02T01:54:44.000Z,100824.78
2023-05-02T01:57:13.622Z,100823.03
2023-05-02T01:59:46.261Z,100831.00
2023-05-02T02:02:15.444Z,100845.16
2023-05-02T02:04:48.590Z,100843.38
2023-05-02T02:07:16.631Z,100840.72
2023-05-02T02:09:44.384Z,100842.50
2023-05-02T02:12:16.906Z,100843.38
2023-05-02T02:14:51.140Z,100847.81
2023-05-02T02:17:25.469Z,100846.94
2023-05-02T02:19:56.086Z,100848.72
2023-05-02T02:22:25.161Z,100845.19
2023-05-02T02:24:54.579Z,100847.81
2023-05-02T02:27:22.529Z,100845.16
2023-05-02T02:29:51.894Z,100851.38
2023-05-02T02:32:19.779Z,100844.28
2023-05-02T02:34:47.535Z,100849.59
2023-05-02T02:37:19.386Z,100861.09
2023-05-02T02:39:59.739Z,100849.59
2023-05-02T02:42:39.453Z,100852.25
2023-05-02T02:45:17.920Z,100851.38
2023-05-02T02:47:55.182Z,100846.94
2023-05-02T02:50:31.080Z,100852.25
2023-05-02T02:53:03.388Z,100862.00
2023-05-02T02:55:39.588Z,100863.78
2023-05-02T02:58:20.014Z,100857.53
2023-05-02T03:00:50.787Z,100866.44
2023-05-02T03:03:19.718Z,100869.06
2023-05-02T03:05:47.749Z,100870.84
2023-05-02T03:08:16.382Z,100875.28
2023-05-02T03:10:44.177Z,100881.47
2023-05-02T03:13:12.231Z,100877.94
2023-05-02T03:16:14.490Z,100878.81
2023-05-02T03:18:42.633Z,100888.56
2023-05-02T03:21:10.763Z,100875.28
2023-05-02T03:23:39.233Z,100882.34
2023-05-02T03:26:07.406Z,100877.03
2023-05-02T03:28:35.542Z,100885.00
2023-05-02T03:31:07.021Z,100885.91
2023-05-02T03:33:38.533Z,100892.06
2023-05-02T03:36:08.186Z,100892.97
2023-05-02T03:38:36.101Z,100896.50
2023-05-02T03:41:07.919Z,100899.16
2023-05-02T03:43:36.168Z,100902.66
2023-05-02T03:46:11.939Z,100904.44
2023-05-02T03:48:46.499Z,100909.75
2023-05-02T03:51:14.532Z,100923.03
2023-05-02T03:53:45.506Z,100921.22
2023-05-02T03:56:13.501Z,100919.47
2023-05-02T03:58:50.053Z,100922.13
2023-05-02T04:01:23.574Z,100919.47
2023-05-02T04:03:53.625Z,100924.78
2023-05-02T04:06:24.506Z,100930.97
2023-05-02T04:08:58.766Z,100934.50
2023-05-02T04:11:31.120Z,100938.91
2023-05-02T04:13:59.369Z,100936.25
2023-05-02T04:16:28.556Z,100944.22
2023-05-02T04:18:56.765Z,100955.75
2023-05-02T04:21:25.578Z,100953.97
2023-05-02T04:23:53.813Z,100961.94
2023-05-02T04:26:21.752Z,100961.03
2023-05-02T04:28:56.234Z,100971.66
2023-05-02T04:31:24.265Z,100978.72
2023-05-02T04:33:54.307Z,100981.38
2023-05-02T04:36:26.026Z,100989.34
2023-05-02T04:38:54.048Z,100985.81
2023-05-02T04:41:22.181Z,100988.47
2023-05-02T04:43:56.995Z,100987.59
2023-05-02T04:46:24.938Z,100992.88
2023-05-02T04:48:54.264Z,100997.31
2023-05-02T04:51:22.299Z,101003.50
2023-05-02T04:53:51.280Z,101005.28
2023-05-02T04:56:19.914Z,101000.88
2023-05-02T04:58:48.008Z,101004.44
2023-05-02T05:01:16.434Z,101011.50
2023-05-02T05:03:44.497Z,101015.94
2023-05-02T05:06:14.470Z,101019.47
2023-05-02T05:08:45.508Z,101022.13
2023-05-02T05:11:15.761Z,101028.31
2023-05-02T05:13:43.720Z,101019.53
2023-05-02T05:16:13.574Z,101030.16
2023-05-02T05:18:42.543Z,101028.38
2023-05-02T05:21:14.407Z,101029.25
2023-05-02T05:23:45.905Z,101043.44
2023-05-02T05:26:17.785Z,101041.66
2023-05-02T05:28:50.689Z,101053.19
2023-05-02T05:31:19.902Z,101052.28
2023-05-02T05:33:51.153Z,101054.09
2023-05-02T05:36:23.432Z,101062.94
2023-05-02T05:38:52.292Z,101061.16
2023-05-02T05:41:21.160Z,101070.91
2023-05-02T05:43:53.561Z,101077.09
2023-05-02T05:46:21.686Z,101077.09
2023-05-02T05:48:49.507Z,101082.41
2023-05-02T05:51:17.440Z,101089.50
2023-05-02T05:53:46.633Z,101094.84
2023-05-02T05:56:15.399Z,101094.84
2023-05-02T05:58:49.660Z,101109.00
2023-05-02T06:01:17.861Z,101109.03
2023-05-02T06:03:46.515Z,101116.13
2023-05-02T06:06:15.664Z,101119.69
2023-05-02T06:08:43.851Z,101121.47
2023-05-02T06:11:13.431Z,101127.66
2023-05-02T06:13:41.468Z,101133.91
2023-05-02T06:16:09.814Z,101134.78
2023-05-02T06:18:37.858Z,101135.66
2023-05-02T06:21:06.235Z,101140.09
2023-05-02T06:23:34.642Z,101136.56
2023-05-02T06:26:02.966Z,101145.44
2023-05-02T06:28:32.999Z,101147.19
2023-05-02T06:31:04.312Z,101146.34
2023-05-02T06:33:33.331Z,101151.66
2023-05-02T06:36:01.967Z,101151.66
2023-05-02T06:38:30.351Z,101153.47
2023-05-02T06:40:58.194Z,101164.09
2023-05-02T06:43:26.088Z,101165.00
2023-05-02T06:45:56.608Z,101172.97
2023-05-02T06:48:24.572Z,101168.53
2023-05-02T06:50:53.921Z,101179.19
2023-05-02T06:53:21.987Z,101178.31
2023-05-02T06:55:50.096Z,101180.97
2023-05-02T06:58:17.964Z,101195.16
2023-05-02T07:00:45.913Z,101190.69
2023-05-02T07:03:15.289Z,101191.63
2023-05-02T07:05:43.093Z,101194.25
2023-05-02T07:08:11.628Z,101196.97
2023-05-02T07:10:39.522Z,101209.38
2023-05-02T07:13:07.558Z,101203.16
2023-05-02T07:15:35.406Z,101214.69
2023-05-02T07:18:03.533Z,101218.22
2023-05-02T07:20:32.873Z,101223.56
2023-05-02T07:23:00.684Z,101225.34
2023-05-02T07:25:28.492Z,101224.44
2023-05-02T07:27:56.300Z,101235.09
2023-05-02T07:30:25.022Z,101236.88
2023-05-02T07:32:52.850Z,101242.22
2023-05-02T07:35:20.781Z,101236.03
2023-05-02T07:37:50.145Z,101248.44
2023-05-02T07:40:18.379Z,101248.44
2023-05-02T07:42:46.847Z,101241.34
2023-05-02T07:45:14.691Z,101252.88
2023-05-02T07:47:42.960Z,101256.44
2023-05-02T07:50:12.092Z,101259.97
2023-05-02T07:52:39.948Z,101259.09
2023-05-02T07:55:10.337Z,101263.50
2023-05-02T07:57:38.032Z,101259.06
2023-05-02T08:00:10.360Z,101255.50
2023-05-02T08:02:42.774Z,101266.13
2023-05-02T08:05:11.407Z,101268.78
2023-05-02T08:07:39.319Z,101270.53
2023-05-02T08:10:10.468Z,101267.88
2023-05-02T08:12:41.429Z,101279.41
2023-05-02T08:15:11.492Z,101283.00
2023-05-02T08:17:39.356Z,101293.66
2023-05-02T08:20:08.698Z,101294.53
2023-05-02T08:22:36.461Z,101299.88
2023-05-02T08:25:04.432Z,101302.56
2023-05-02T08:27:35.309Z,101312.31
2023-05-02T08:30:03.594Z,101316.78
2023-05-02T08:32:33.421Z,101311.44
2023-05-02T08:35:01.622Z,101318.56
2023-05-02T08:37:29.478Z,101317.69
2023-05-02T08:39:57.270Z,101323.88
2023-05-02T08:42:25.100Z,101333.66
2023-05-02T08:44:54.462Z,101331.84
2023-05-02T08:47:26.508Z,101339.88
2023-05-02T08:49:56.620Z,101341.63
2023-05-02T08:52:25.013Z,101343.41
2023-05-02T08:54:53.700Z,101352.28
2023-05-02T08:57:21.518Z,101359.38
2023-05-02T08:59:50.008Z,101374.47
2023-05-02T09:02:33.704Z,101384.19
2023-05-02T09:05:07.707Z,101388.59
2023-05-02T09:07:45.763Z,101391.25
2023-05-02T09:10:13.618Z,101401.00
2023-05-02T09:12:41.521Z,101414.31
2023-05-02T09:15:13.805Z,101418.72
2023-05-02T09:17:44.950Z,101426.69
2023-05-02T09:20:14.236Z,101436.41
2023-05-02T09:22:50.243Z,101440.84
2023-05-02T09:25:18.585Z,101439.97
2023-05-02T09:27:58.972Z,101447.94
2023-05-02T09:30:27.625Z,101444.38
2023-05-02T09:32:56.886Z,101439.94
2023-05-02T09:35:25.212Z,101460.34
2023-05-02T09:37:54.711Z,101455.94
2023-05-02T09:40:24.297Z,101461.31
2023-05-02T09:42:52.950Z,101470.19
2023-05-02T09:45:22.585Z,101470.19
2023-05-02T09:47:50.680Z,101481.75
2023-05-02T09:50:36.775Z,101485.25
2023-05-02T09:53:06.960Z,101485.25
2023-05-02T09:55:34.738Z,101487.09
2023-05-02T09:58:02.668Z,101478.25
2023-05-02T10:00:41.558Z,101480.06
2023-05-02T10:03:09.714Z,101470.38
2023-05-02T10:05:40.596Z,101481.06
2023-05-02T10:08:10.210Z,101481.06
2023-05-02T10:10:39.248Z,101477.53
2023-05-02T10:13:08.602Z,101481.97
2023-05-02T10:15:43.622Z,101472.19
2023-05-02T10:18:15.197Z,101478.41
2023-05-02T10:20:50.282Z,101481.97
2023-05-02T10:23:18.914Z,101476.56
2023-05-02T10:25:47.153Z,101480.94
2023-05-02T10:28:15.912Z,101485.34
2023-05-02T10:30:44.670Z,101488.88
2023-05-02T10:33:15.152Z,101493.25
2023-05-02T10:35:46.713Z,101493.13
2023-05-02T10:38:19.309Z,101497.50
2023-05-02T10:40:57.661Z,101498.34
2023-05-02T10:43:28.014Z,101495.69
2023-05-02T10:45:56.059Z,101493.88
2023-05-02T10:48:26.826Z,101502.78
2023-05-02T10:50:57.752Z,101499.16
2023-05-02T10:53:27.460Z,101508.94
2023-05-02T10:56:13.381Z,101505.44
2023-05-02T10:58:41.845Z,101512.56
2023-05-02T11:01:39.879Z,101500.09
2023-05-02T11:04:09.735Z,101506.38
2023-05-02T11:07:16.347Z,101516.19
2023-05-02T11:09:44.101Z,101512.66
2023-05-02T11:12:11.813Z,101510.81
2023-05-02T11:14:52.114Z,101507.25
2023-05-02T11:17:21.137Z,101513.47
2023-05-02T11:20:25.944Z,101508.94
2023-05-02T11:22:56.604Z,101516.03
2023-05-02T11:25:38.236Z,101507.97
2023-05-02T11:28:09.486Z,101515.06
2023-05-02T11:30:45.096Z,101519.53
2023-05-02T11:33:17.287Z,101531.13
2023-05-02T11:35:46.857Z,101528.47
2023-05-02T11:38:18.229Z,101537.28
2023-05-02T11:40:53.625Z,101537.22
2023-05-02T11:43:22.644Z,101529.06
2023-05-02T11:45:50.703Z,101524.31
2023-05-02T11:48:20.366Z,101541.81
2023-05-02T11:50:50.602Z,101539.91
2023-05-02T11:53:24.915Z,101540.75
2023-05-02T11:55:54.967Z,101543.47
2023-05-02T11:58:24.700Z,101553.28
2023-05-02T12:00:53.930Z,101546.97
2023-05-02T12:03:26.438Z,101554.09
2023-05-02T12:05:54.704Z,101557.72
2023-05-02T12:08:26.440Z,101559.56
2023-05-02T12:10:56.325Z,101562.34
2023-05-02T12:13:25.617Z,101565.88
2023-05-02T12:15:55.503Z,101569.38
2023-05-02T12:18:25.115Z,101571.09
2023-05-02T12:20:53.505Z,101581.03
2023-05-02T12:23:23.123Z,101594.47
2023-05-02T12:25:52.365Z,101589.13
2023-05-02T12:28:23.366Z,101589.13
2023-05-02T12:30:52.646Z,101585.56
2023-05-02T12:33:20.780Z,101590.78
2023-05-02T12:35:48.976Z,101592.53
2023-05-02T12:38:18.221Z,101589.00
2023-05-02T12:40:54.640Z,101587.25
2023-05-02T12:43:22.947Z,101598.97
2023-05-02T12:45:53.911Z,101598.03
2023-05-02T12:48:24.334Z,101608.88
2023-05-02T12:50:53.177Z,101598.16
2023-05-02T12:53:38.913Z,101607.13
2023-05-02T12:56:08.859Z,101609.84
2023-05-02T12:58:44.364Z,101609.75
2023-05-02T13:01:12.353Z,101613.34
2023-05-02T13:03:40.663Z,101606.22
2023-05-02T13:06:08.557Z,101616.16
2023-05-02T13:08:37.538Z,101621.44
2023-05-02T13:11:05.731Z,101609.84
2023-05-02T13:13:35.656Z,101611.72
2023-05-02T13:16:04.005Z,101625.19
2023-05-02T13:18:31.890Z,101619.00
2023-05-02T13:20:59.752Z,101622.53
2023-05-02T13:23:27.854Z,101619.91
2023-05-02T13:25:55.694Z,101631.56
2023-05-02T13:28:23.560Z,101625.31
2023-05-02T13:30:52.677Z,101621.72
2023-05-02T13:33:21.052Z,101619.13
2023-05-02T13:35:48.985Z,101625.31
2023-05-02T13:38:17.213Z,101627.88
2023-05-02T13:40:45.067Z,101622.44
2023-05-02T13:43:12.842Z,101635.81
2023-05-02T13:45:40.828Z,101637.59
2023-05-02T13:48:10.113Z,101642.94
2023-05-02T13:50:39.191Z,101642.03
2023-05-02T13:53:07.008Z,101642.94
2023-05-02T13:55:34.764Z,101641.06
2023-05-02T13:58:02.765Z,101635.69
2023-05-02T14:00:30.545Z,101642.00
2023-05-02T14:02:58.488Z,101643.84
2023-05-02T14:05:27.936Z,101648.41
2023-05-02T14:07:55.756Z,101641.34
2023-05-02T14:10:23.469Z,101653.00
2023-05-02T14:12:53.138Z,101655.75
2023-05-02T14:15:20.973Z,101661.22
2023-05-02T14:17:50.451Z,101663.97
2023-05-02T14:20:18.220Z,101664.84
2023-05-02T14:22:47.509Z,101657.56
2023-05-02T14:25:15.714Z,101654.63
2023-05-02T14:27:44.006Z,101656.44
2023-05-02T14:30:12.372Z,101662.69
2023-05-02T14:32:40.227Z,101658.31
2023-05-02T14:35:09.000Z,101662.81
2023-05-02T14:37:36.936Z,101660.22
2023-05-02T14:40:07.494Z,101666.47
2023-05-02T14:42:35.357Z,101667.41
2023-05-02T14:45:03.311Z,101677.25
2023-05-02T14:47:31.527Z,101677.31
2023-05-02T14:49:59.547Z,101674.66
2023-05-02T14:52:27.922Z,101680.09
2023-05-02T14:54:55.879Z,101674.78
2023-05-02T14:57:25.046Z,101671.13
2023-05-02T14:59:52.794Z,101664.72
2023-05-02T15:02:21.914Z,101670.88
2023-05-02T15:04:49.859Z,101659.06
2023-05-02T15:07:18.151Z,101670.56
2023-05-02T15:09:46.053Z,101667.16
2023-05-02T15:12:13.855Z,101671.69
2023-05-02T15:14:42.914Z,101667.28
2023-05-02T15:17:10.740Z,101676.31
2023-05-02T15:19:38.596Z,101670.19
2023-05-02T15:22:06.447Z,101672.88
2023-05-02T15:24:34.216Z,101677.25
2023-05-02T15:27:01.928Z,101673.63
2023-05-02T15:29:29.733Z,101667.31
2023-05-02T15:31:58.811Z,101669.09
2023-05-02T15:34:26.646Z,101670.84
2023-05-02T15:36:55.661Z,101669.97
2023-05-02T15:39:26.373Z,101664.53
2023-05-02T15:41:54.214Z,101662.72
2023-05-02T15:44:21.965Z,101667.22
2023-05-02T15:46:49.797Z,101666.34
2023-05-02T15:49:18.982Z,101675.31
2023-05-02T15:51:46.712Z,101681.56
2023-05-02T15:54:14.497Z,101677.06
2023-05-02T15:56:42.240Z,101667.22
2023-05-02T15:59:10.025Z,101669.88
2023-05-02T16:01:37.861Z,101679.63
2023-05-02T16:04:06.974Z,101676.94
2023-05-02T16:06:36.296Z,101687.63
2023-05-02T16:09:05.052Z,101684.13
2023-05-02T16:11:32.975Z,101685.06
2023-05-02T16:14:01.306Z,101687.72
2023-05-02T16:16:29.292Z,101682.38
2023-05-02T16:18:57.068Z,101688.59
2023-05-02T16:21:24.781Z,101696.63
2023-05-02T16:23:54.038Z,101688.59
2023-05-02T16:26:21.786Z,101691.28
2023-05-02T16:28:49.613Z,101684.19
2023-05-02T16:31:17.441Z,101690.41
2023-05-02T16:33:45.233Z,101692.16
2023-05-02T16:36:14.622Z,101700.19
2023-05-02T16:38:42.726Z,101700.25
2023-05-02T16:41:12.083Z,101715.47
2023-05-02T16:43:39.807Z,101706.56
2023-05-02T16:46:08.366Z,101710.13
2023-05-02T16:48:36.406Z,101718.25
2023-05-02T16:51:04.639Z,101713.03
2023-05-02T16:53:32.737Z,101717.56
2023-05-02T16:56:00.570Z,101720.25
2023-05-02T16:58:30.397Z,101721.19
2023-05-02T17:01:00.355Z,101714.06
2023-05-02T17:03:28.924Z,101719.44
2023-05-02T17:06:00.303Z,101733.69
2023-05-02T17:08:28.354Z,101728.34
2023-05-02T17:10:56.299Z,101733.69
2023-05-02T17:13:24.679Z,101727.44
2023-05-02T17:15:53.910Z,101725.66
2023-05-02T17:18:22.125Z,101730.13
2023-05-02T17:20:49.946Z,101744.34
2023-05-02T17:23:17.775Z,101737.16
2023-05-02T17:25:45.765Z,101745.09
2023-05-02T17:28:13.631Z,101753.97
2023-05-02T17:30:41.850Z,101752.13
2023-05-02T17:33:11.732Z,101753.88
2023-05-02T17:35:39.557Z,101757.41
2023-05-02T17:38:07.367Z,101760.91
2023-05-02T17:40:36.764Z,101758.19
2023-05-02T17:43:05.806Z,101767.88
2023-05-02T17:45:33.532Z,101767.84
2023-05-02T17:48:03.291Z,101775.78
2023-05-02T17:50:37.658Z,101763.28
2023-05-02T17:53:05.926Z,101765.00
2023-05-02T17:55:34.184Z,101776.44
2023-05-02T17:58:02.161Z,101780.84
2023-05-02T18:00:30.949Z,101778.06
2023-05-02T18:02:58.830Z,101790.38
2023-05-02T18:05:26.984Z,101780.53
2023-05-02T18:07:58.818Z,101795.53
2023-05-02T18:10:27.110Z,101795.41
2023-05-02T18:12:54.995Z,101797.09
2023-05-02T18:15:22.959Z,101801.59
2023-05-02T18:17:50.765Z,101805.97
2023-05-02T18:20:18.607Z,101806.78
2023-05-02T18:22:46.326Z,101812.00
2023-05-02T18:25:15.619Z,101816.34
2023-05-02T18:27:43.394Z,101825.09
2023-05-02T18:30:12.363Z,101828.56
2023-05-02T18:32:40.181Z,101834.63
2023-05-02T18:35:10.431Z,101838.97
2023-05-02T18:37:38.282Z,101835.31
2023-05-02T18:40:07.023Z,101842.31
2023-05-02T18:42:36.224Z,101846.66
2023-05-02T18:45:05.201Z,101846.59
2023-05-02T18:47:33.671Z,101854.56
2023-05-02T18:50:01.461Z,101843.84
2023-05-02T18:52:30.813Z,101854.44
2023-05-02T18:54:58.623Z,101856.13
2023-05-02T18:57:26.896Z,101860.50
2023-05-02T18:59:56.853Z,101865.72
2023-05-02T19:02:24.764Z,101870.13
2023-05-02T19:04:52.511Z,101869.13
2023-05-02T19:07:20.291Z,101874.41
2023-05-02T19:09:48.065Z,101880.56
2023-05-02T19:12:15.825Z,101887.56
2023-05-02T19:14:44.732Z,101890.13
2023-05-02T19:17:13.844Z,101894.50
2023-05-02T19:19:41.734Z,101896.22
2023-05-02T19:22:09.597Z,101893.50
2023-05-02T19:24:37.361Z,101891.66
2023-05-02T19:27:06.873Z,101894.28
2023-05-02T19:29:34.606Z,101900.34
2023-05-02T19:32:02.366Z,101900.25
2023-05-02T19:34:31.912Z,101906.28
2023-05-02T19:36:59.704Z,101908.88
2023-05-02T19:39:28.453Z,101914.13
2023-05-02T19:41:56.167Z,101912.22
2023-05-02T19:44:23.936Z,101914.84
2023-05-02T19:46:51.712Z,101920.94
2023-05-02T19:49:19.535Z,101924.41
2023-05-02T19:51:49.354Z,101924.31
2023-05-02T19:54:17.261Z,101926.03
2023-05-02T19:56:46.676Z,101934.78
2023-05-02T19:59:14.670Z,101947.09
2023-05-02T20:01:42.676Z,101935.56
2023-05-02T20:04:10.577Z,101946.06
2023-05-02T20:06:38.455Z,101937.13
2023-05-02T20:09:07.762Z,101939.66
2023-05-02T20:11:35.653Z,101948.38
2023-05-02T20:14:03.537Z,101950.94
2023-05-02T20:16:31.756Z,101947.34
2023-05-02T20:18:59.660Z,101954.34
2023-05-02T20:21:28.039Z,101949.75
2023-05-02T20:23:55.810Z,101962.00
2023-05-02T20:26:26.603Z,101967.16
2023-05-02T20:28:54.441Z,101959.06
2023-05-02T20:31:22.413Z,101966.09
2023-05-02T20:33:50.394Z,101960.69
2023-05-02T20:36:18.295Z,101974.69
2023-05-02T20:38:49.233Z,101973.66
2023-05-02T20:41:17.757Z,101977.06
2023-05-02T20:43:47.287Z,101972.56
2023-05-02T20:46:17.271Z,101968.06
2023-05-02T20:48:45.077Z,101961.91
2023-05-02T20:51:13.024Z,101974.22
2023-05-02T20:53:40.968Z,101978.63
2023-05-02T20:56:08.913Z,101982.94
2023-05-02T20:58:36.792Z,101966.19
2023-05-02T21:01:06.441Z,101979.47
2023-05-02T21:03:36.756Z,101976.81
2023-05-02T21:06:04.810Z,101977.69
2023-05-02T21:08:32.710Z,101973.31
2023-05-02T21:11:01.178Z,101979.50
2023-05-02T21:13:28.959Z,101972.50
2023-05-02T21:15:56.824Z,101976.03
2023-05-02T21:18:26.167Z,101976.03
2023-05-02T21:20:53.940Z,101988.41
2023-05-02T21:23:21.750Z,101986.63
2023-05-02T21:25:49.556Z,101989.25
2023-05-02T21:28:17.309Z,101993.72
2023-05-02T21:30:45.083Z,101991.97
2023-05-02T21:33:14.859Z,101992.78
2023-05-02T21:35:44.109Z,101994.56
2023-05-02T21:38:12.048Z,101995.44
2023-05-02T21:40:40.026Z,101996.38
2023-05-02T21:43:07.834Z,102010.50
2023-05-02T21:45:35.609Z,102009.56
2023-05-02T21:48:03.551Z,102004.22
2023-05-02T21:50:31.418Z,102006.84
2023-05-02T21:53:01.518Z,102012.97
2023-05-02T21:55:29.298Z,102005.03
2023-05-02T21:57:57.117Z,102003.16
2023-05-02T22:00:25.199Z,102015.53
2023-05-02T22:02:53.132Z,102012.78
2023-05-02T22:05:21.673Z,102010.94
2023-05-02T22:07:50.272Z,102015.22
2023-05-02T22:10:19.964Z,102012.47
2023-05-02T22:12:47.734Z,102016.75
2023-05-02T22:15:15.601Z,102014.91
2023-05-02T22:17:43.563Z,102022.78
2023-05-02T22:20:13.142Z,102011.31
2023-05-02T22:22:41.230Z,102020.97
2023-05-02T22:25:09.814Z,102014.78
2023-05-02T22:27:39.082Z,102016.47
2023-05-02T22:30:08.638Z,102019.03
2023-05-02T22:32:37.183Z,102025.19
2023-05-02T22:35:05.853Z,102015.44
2023-05-02T22:37:33.732Z,102026.81
2023-05-02T22:40:02.039Z,102021.47
2023-05-02T22:42:30.117Z,102018.69
2023-05-02T22:44:59.342Z,102032.81
2023-05-02T22:47:29.234Z,102020.38
2023-05-02T22:49:59.639Z,102028.31
2023-05-02T22:52:28.334Z,102034.47
2023-05-02T22:54:56.167Z,102034.38
2023-05-02T22:57:24.514Z,102038.78
2023-05-02T22:59:52.272Z,102044.97
2023-05-02T23:02:21.503Z,102040.56
2023-05-02T23:04:49.348Z,102043.16
2023-05-02T23:07:17.140Z,102042.25
2023-05-02T23:09:45.052Z,102041.31
2023-05-02T23:12:12.850Z,102040.44
2023-05-02T23:14:40.619Z,102039.53
2023-05-02T23:17:08.411Z,102038.63
2023-05-02T23:19:37.503Z,102038.59
2023-05-02T23:22:05.315Z,102029.75
2023-05-02T23:24:33.195Z,102042.94
2023-05-02T23:27:01.063Z,102038.38
2023-05-02T23:29:28.904Z,102040.16
2023-05-02T23:31:56.957Z,102044.56
2023-05-02T23:34:25.056Z,102032.22
2023-05-02T23:36:54.352Z,102038.38
2023-05-02T23:39:22.320Z,102044.50
2023-05-02T23:41:50.107Z,102044.50
2023-05-02T23:44:17.952Z,102040.00
2023-05-02T23:46:45.846Z,102043.53
2023-05-02T23:49:13.738Z,102038.97
2023-05-02T23:51:41.805Z,102050.41
2023-05-02T23:54:11.110Z,102044.97
2023-05-02T23:56:38.966Z,102044.09
2023-05-02T23:59:06.936Z,102045.75
